createdAt,value
2022-09-10T00:00:16.141Z,0.00
2022-09-10T00:01:16.137Z,0.00
2022-09-10T00:02:16.273Z,0.00
2022-09-10T00:03:16.161Z,0.00
2022-09-10T00:04:16.186Z,0.00
2022-09-10T00:05:16.191Z,0.00
2022-09-10T00:06:16.234Z,0.00
2022-09-10T00:07:16.226Z,0.00
2022-09-10T00:08:16.274Z,0.00
2022-09-10T00:09:16.249Z,0.00
2022-09-10T00:10:16.267Z,0.00
2022-09-10T00:11:16.297Z,0.00
2022-09-10T00:12:16.313Z,0.00
2022-09-10T00:13:16.356Z,0.00
2022-09-10T00:14:16.409Z,0.00
2022-09-10T00:15:16.370Z,0.00
2022-09-10T00:16:16.425Z,0.00
2022-09-10T00:17:16.379Z,0.00
2022-09-10T00:18:16.377Z,0.00
2022-09-10T00:19:16.397Z,0.00
2022-09-10T00:20:16.417Z,0.00
2022-09-10T00:21:16.431Z,0.00
2022-09-10T00:22:16.465Z,0.00
2022-09-10T00:23:16.456Z,0.00
2022-09-10T00:24:16.492Z,0.00
2022-09-10T00:25:16.478Z,0.00
2022-09-10T00:26:16.506Z,0.00
2022-09-10T00:27:16.520Z,0.00
2022-09-10T00:28:16.561Z,0.00
2022-09-10T00:29:16.573Z,0.00
2022-09-10T00:30:16.572Z,0.00
2022-09-10T00:31:16.594Z,0.00
2022-09-10T00:32:16.572Z,0.00
2022-09-10T00:33:16.764Z,0.00
2022-09-10T00:34:16.626Z,0.00
2022-09-10T00:35:16.634Z,0.00
2022-09-10T00:36:16.621Z,0.00
2022-09-10T00:37:16.620Z,0.00
2022-09-10T00:38:16.661Z,0.00
2022-09-10T00:39:16.680Z,0.00
2022-09-10T00:40:16.689Z,0.00
2022-09-10T00:41:16.675Z,0.00
2022-09-10T00:42:16.683Z,0.00
2022-09-10T00:43:16.718Z,0.00
2022-09-10T00:44:16.761Z,0.00
2022-09-10T00:45:16.725Z,0.00
2022-09-10T00:46:16.739Z,0.00
2022-09-10T00:47:16.758Z,0.00
2022-09-10T00:48:16.778Z,0.00
2022-09-10T00:49:16.784Z,0.00
2022-09-10T00:50:16.826Z,0.00
2022-09-10T00:51:16.800Z,0.00
2022-09-10T00:52:16.796Z,0.00
2022-09-10T00:53:16.818Z,0.00
2022-09-10T00:54:16.856Z,0.00
2022-09-10T00:55:16.887Z,0.00
2022-09-10T00:56:16.865Z,0.00
2022-09-10T00:57:16.868Z,0.00
2022-09-10T00:58:16.867Z,0.00
2022-09-10T00:59:16.858Z,0.00
2022-09-10T01:00:16.858Z,0.00
2022-09-10T01:01:16.915Z,0.00
2022-09-10T01:02:16.891Z,0.00
2022-09-10T01:03:16.851Z,0.00
2022-09-10T01:04:16.881Z,0.00
2022-09-10T01:05:16.909Z,0.00
2022-09-10T01:06:16.906Z,0.00
2022-09-10T01:07:16.906Z,0.00
2022-09-10T01:08:16.942Z,0.00
2022-09-10T01:09:16.962Z,0.00
2022-09-10T01:10:16.998Z,0.00
2022-09-10T01:11:16.991Z,0.00
2022-09-10T01:12:17.006Z,0.00
2022-09-10T01:13:17.021Z,0.00
2022-09-10T01:14:17.072Z,0.00
2022-09-10T01:15:17.040Z,0.00
2022-09-10T01:16:17.098Z,0.00
2022-09-10T01:17:17.086Z,0.00
2022-09-10T01:18:17.121Z,0.00
2022-09-10T01:19:17.153Z,0.00
2022-09-10T01:20:17.169Z,0.00
2022-09-10T01:21:17.180Z,0.00
2022-09-10T01:22:17.179Z,0.00
2022-09-10T01:23:18.063Z,0.00
2022-09-10T01:24:17.234Z,0.00
2022-09-10T01:25:17.262Z,0.00
2022-09-10T01:26:17.305Z,0.00
2022-09-10T01:27:17.261Z,0.00
2022-09-10T01:28:17.271Z,0.00
2022-09-10T01:29:17.299Z,0.00
2022-09-10T01:30:17.310Z,0.00
2022-09-10T01:31:17.370Z,0.00
2022-09-10T01:32:17.342Z,0.00
2022-09-10T01:33:17.361Z,0.00
2022-09-10T01:34:17.378Z,0.00
2022-09-10T01:35:17.406Z,0.00
2022-09-10T01:36:17.424Z,0.00
2022-09-10T01:37:17.439Z,0.00
2022-09-10T01:38:17.474Z,0.00
2022-09-10T01:39:17.452Z,0.00
2022-09-10T01:40:17.445Z,0.00
2022-09-10T01:41:17.466Z,0.00
2022-09-10T01:42:17.505Z,0.00
2022-09-10T01:43:17.505Z,0.00
2022-09-10T01:44:17.546Z,0.00
2022-09-10T01:45:17.507Z,0.00
2022-09-10T01:46:17.513Z,0.00
2022-09-10T01:47:17.542Z,0.00
2022-09-10T01:48:17.559Z,0.00
2022-09-10T01:49:17.589Z,0.00
2022-09-10T01:50:17.581Z,0.00
2022-09-10T01:51:17.595Z,0.00
2022-09-10T01:52:17.596Z,0.00
2022-09-10T01:53:17.625Z,0.00
2022-09-10T01:54:17.657Z,0.00
2022-09-10T01:55:17.638Z,0.00
2022-09-10T01:56:17.665Z,0.00
2022-09-10T01:57:17.677Z,0.00
2022-09-10T01:58:17.709Z,0.00
2022-09-10T01:59:17.724Z,0.00
2022-09-10T02:00:17.701Z,0.00
2022-09-10T02:01:17.770Z,0.00
2022-09-10T02:02:17.834Z,0.00
2022-09-10T02:03:17.770Z,0.00
2022-09-10T02:04:17.808Z,0.00
2022-09-10T02:05:17.766Z,0.00
2022-09-10T02:06:17.797Z,0.00
2022-09-10T02:07:17.798Z,0.00
2022-09-10T02:08:17.822Z,0.00
2022-09-10T02:09:17.845Z,0.00
2022-09-10T02:10:17.879Z,0.00
2022-09-10T02:11:17.845Z,0.00
2022-09-10T02:12:17.862Z,0.00
2022-09-10T02:13:17.893Z,0.00
2022-09-10T02:14:17.947Z,0.00
2022-09-10T02:15:17.941Z,0.00
2022-09-10T02:16:18.048Z,0.00
2022-09-10T02:17:17.975Z,0.00
2022-09-10T02:18:18.035Z,0.00
2022-09-10T02:19:18.039Z,0.00
2022-09-10T02:20:18.063Z,0.00
2022-09-10T02:21:18.071Z,0.00
2022-09-10T02:22:18.094Z,0.00
2022-09-10T02:23:18.100Z,0.00
2022-09-10T02:24:18.232Z,0.00
2022-09-10T02:25:18.371Z,0.00
2022-09-10T02:26:18.141Z,0.00
2022-09-10T02:27:18.137Z,0.00
2022-09-10T02:28:18.162Z,0.00
2022-09-10T02:29:18.203Z,0.00
2022-09-10T02:30:18.193Z,0.00
2022-09-10T02:31:18.233Z,0.00
2022-09-10T02:32:18.196Z,0.00
2022-09-10T02:33:18.205Z,0.00
2022-09-10T02:34:18.227Z,0.00
2022-09-10T02:35:18.275Z,0.00
2022-09-10T02:36:18.242Z,0.00
2022-09-10T02:37:18.309Z,0.00
2022-09-10T02:38:18.341Z,0.00
2022-09-10T02:39:18.296Z,0.00
2022-09-10T02:40:18.289Z,0.00
2022-09-10T02:41:18.308Z,0.00
2022-09-10T02:42:18.331Z,0.00
2022-09-10T02:43:18.328Z,0.00
2022-09-10T02:44:18.366Z,0.00
2022-09-10T02:45:18.374Z,0.00
2022-09-10T02:46:18.373Z,0.00
2022-09-10T02:47:18.372Z,0.00
2022-09-10T02:48:18.398Z,0.00
2022-09-10T02:49:18.447Z,0.00
2022-09-10T02:50:18.446Z,0.00
2022-09-10T02:51:18.461Z,0.00
2022-09-10T02:52:18.481Z,0.00
2022-09-10T02:53:18.509Z,0.00
2022-09-10T02:54:18.524Z,0.00
2022-09-10T02:55:18.559Z,0.00
2022-09-10T02:56:18.576Z,0.00
2022-09-10T02:57:18.607Z,0.00
2022-09-10T02:58:18.587Z,0.00
2022-09-10T02:59:18.618Z,0.00
2022-09-10T03:00:18.647Z,0.00
2022-09-10T03:01:18.744Z,0.00
2022-09-10T03:02:18.747Z,0.00
2022-09-10T03:03:18.688Z,0.00
2022-09-10T03:04:18.708Z,0.00
2022-09-10T03:05:18.828Z,0.00
2022-09-10T03:06:18.717Z,0.00
2022-09-10T03:07:18.733Z,0.00
2022-09-10T03:08:18.775Z,0.00
2022-09-10T03:09:18.733Z,0.00
2022-09-10T03:10:18.740Z,0.00
2022-09-10T03:11:18.735Z,0.00
2022-09-10T03:12:18.761Z,0.00
2022-09-10T03:13:18.759Z,0.00
2022-09-10T03:14:18.791Z,0.00
2022-09-10T03:15:18.760Z,0.00
2022-09-10T03:16:18.819Z,0.00
2022-09-10T03:17:18.839Z,0.00
2022-09-10T03:18:18.879Z,0.00
2022-09-10T03:19:18.840Z,0.00
2022-09-10T03:20:18.851Z,0.00
2022-09-10T03:21:18.861Z,0.00
2022-09-10T03:22:18.860Z,0.00
2022-09-10T03:23:18.856Z,0.00
2022-09-10T03:24:18.864Z,0.00
2022-09-10T03:25:18.878Z,0.00
2022-09-10T03:26:18.899Z,0.00
2022-09-10T03:27:18.924Z,0.00
2022-09-10T03:28:18.890Z,0.00
2022-09-10T03:29:18.908Z,0.00
2022-09-10T03:30:18.971Z,0.00
2022-09-10T03:31:18.981Z,0.00
2022-09-10T03:32:18.961Z,0.00
2022-09-10T03:33:18.962Z,0.00
2022-09-10T03:34:18.992Z,0.00
2022-09-10T03:35:18.969Z,0.00
2022-09-10T03:36:18.947Z,0.00
2022-09-10T03:37:18.951Z,0.00
2022-09-10T03:38:18.967Z,0.00
2022-09-10T03:39:18.980Z,0.00
2022-09-10T03:40:18.971Z,0.00
2022-09-10T03:41:19.016Z,0.00
2022-09-10T03:42:19.028Z,0.00
2022-09-10T03:43:19.026Z,0.00
2022-09-10T03:44:19.018Z,0.00
2022-09-10T03:45:19.047Z,0.00
2022-09-10T03:46:19.083Z,0.00
2022-09-10T03:47:19.107Z,0.00
2022-09-10T03:48:19.082Z,0.00
2022-09-10T03:49:19.082Z,0.00
2022-09-10T03:50:19.143Z,0.00
2022-09-10T03:51:19.139Z,0.00
2022-09-10T03:52:19.153Z,0.00
2022-09-10T03:53:19.162Z,0.00
2022-09-10T03:54:19.182Z,0.00
2022-09-10T03:55:19.197Z,0.00
2022-09-10T03:56:19.222Z,0.00
2022-09-10T03:57:19.230Z,0.00
2022-09-10T03:58:19.237Z,0.00
2022-09-10T03:59:19.260Z,0.00
2022-09-10T04:00:19.274Z,0.00
2022-09-10T04:01:19.358Z,0.00
2022-09-10T04:02:19.341Z,0.00
2022-09-10T04:03:19.271Z,0.00
2022-09-10T04:04:19.280Z,0.00
2022-09-10T04:05:19.304Z,0.00
2022-09-10T04:06:19.355Z,0.00
2022-09-10T04:07:19.310Z,0.00
2022-09-10T04:08:19.320Z,0.00
2022-09-10T04:09:19.315Z,0.00
2022-09-10T04:10:19.350Z,0.00
2022-09-10T04:11:19.308Z,0.00
2022-09-10T04:12:19.334Z,0.00
2022-09-10T04:13:19.348Z,0.00
2022-09-10T04:14:19.369Z,0.00
2022-09-10T04:15:19.387Z,0.00
2022-09-10T04:16:19.437Z,0.00
2022-09-10T04:17:19.401Z,0.00
2022-09-10T04:18:19.411Z,0.00
2022-09-10T04:19:19.454Z,0.00
2022-09-10T04:20:19.470Z,0.00
2022-09-10T04:21:19.471Z,0.00
2022-09-10T04:22:19.481Z,0.00
2022-09-10T04:23:19.476Z,0.00
2022-09-10T04:24:19.508Z,0.00
2022-09-10T04:25:19.518Z,0.00
2022-09-10T04:26:19.515Z,0.00
2022-09-10T04:27:19.500Z,0.00
2022-09-10T04:28:19.508Z,0.00
2022-09-10T04:29:19.508Z,1.00
2022-09-10T04:30:19.536Z,1.00
2022-09-10T04:31:19.543Z,1.00
2022-09-10T04:32:19.506Z,1.00
2022-09-10T04:33:19.503Z,0.00
2022-09-10T04:34:19.531Z,1.00
2022-09-10T04:35:19.540Z,1.00
2022-09-10T04:36:19.543Z,2.00
2022-09-10T04:37:19.689Z,1.00
2022-09-10T04:38:19.609Z,2.00
2022-09-10T04:39:19.561Z,1.00
2022-09-10T04:40:19.583Z,2.00
2022-09-10T04:41:19.653Z,3.00
2022-09-10T04:42:19.637Z,3.00
2022-09-10T04:43:19.645Z,3.00
2022-09-10T04:44:19.660Z,3.00
2022-09-10T04:45:19.696Z,4.00
2022-09-10T04:46:19.711Z,4.00
2022-09-10T04:47:19.717Z,4.00
2022-09-10T04:48:19.769Z,5.00
2022-09-10T04:49:19.743Z,6.00
2022-09-10T04:50:19.738Z,6.00
2022-09-10T04:51:19.788Z,7.00
2022-09-10T04:52:19.746Z,8.00
2022-09-10T04:53:19.769Z,9.00
2022-09-10T04:54:19.779Z,9.00
2022-09-10T04:55:19.774Z,11.00
2022-09-10T04:56:19.783Z,11.00
2022-09-10T04:57:19.787Z,12.00
2022-09-10T04:58:19.806Z,13.00
2022-09-10T04:59:19.814Z,14.00
2022-09-10T05:00:19.842Z,16.00
2022-09-10T05:01:20.056Z,17.00
2022-09-10T05:02:19.895Z,18.00
2022-09-10T05:03:19.856Z,18.00
2022-09-10T05:04:19.891Z,20.00
2022-09-10T05:05:19.874Z,22.00
2022-09-10T05:06:19.888Z,22.00
2022-09-10T05:07:19.903Z,24.00
2022-09-10T05:08:20.107Z,25.00
2022-09-10T05:09:19.891Z,27.00
2022-09-10T05:10:19.903Z,28.00
2022-09-10T05:11:19.898Z,30.00
2022-09-10T05:12:19.908Z,32.00
2022-09-10T05:13:19.938Z,33.00
2022-09-10T05:14:19.941Z,36.00
2022-09-10T05:15:19.941Z,38.00
2022-09-10T05:16:20.013Z,41.00
2022-09-10T05:17:19.952Z,43.00
2022-09-10T05:18:19.959Z,45.00
2022-09-10T05:19:20.011Z,49.00
2022-09-10T05:20:20.023Z,51.00
2022-09-10T05:21:20.015Z,53.00
2022-09-10T05:22:20.042Z,56.00
2022-09-10T05:23:20.078Z,58.00
2022-09-10T05:24:20.098Z,61.00
2022-09-10T05:25:20.126Z,62.00
2022-09-10T05:26:20.163Z,65.00
2022-09-10T05:27:20.159Z,67.00
2022-09-10T05:28:20.171Z,71.00
2022-09-10T05:29:20.197Z,74.00
2022-09-10T05:30:20.213Z,78.00
2022-09-10T05:31:20.308Z,81.00
2022-09-10T05:32:20.256Z,84.00
2022-09-10T05:33:20.231Z,89.00
2022-09-10T05:34:20.270Z,93.00
2022-09-10T05:35:20.245Z,98.00
2022-09-10T05:36:26.439Z,101.00
2022-09-10T05:37:20.293Z,102.00
2022-09-10T05:38:20.342Z,102.00
2022-09-10T05:39:20.309Z,103.00
2022-09-10T05:40:20.307Z,106.00
2022-09-10T05:41:20.320Z,109.00
2022-09-10T05:42:20.354Z,110.00
2022-09-10T05:43:20.364Z,114.00
2022-09-10T05:44:20.395Z,118.00
2022-09-10T05:45:20.367Z,124.00
2022-09-10T05:46:20.382Z,128.00
2022-09-10T05:47:20.356Z,133.00
2022-09-10T05:48:20.391Z,136.00
2022-09-10T05:49:20.402Z,138.00
2022-09-10T05:50:20.467Z,134.00
2022-09-10T05:51:20.468Z,130.00
2022-09-10T05:52:20.478Z,125.00
2022-09-10T05:53:20.504Z,121.00
2022-09-10T05:54:20.530Z,121.00
2022-09-10T05:55:20.557Z,122.00
2022-09-10T05:56:20.613Z,124.00
2022-09-10T05:57:20.569Z,127.00
2022-09-10T05:58:20.592Z,128.00
2022-09-10T05:59:20.591Z,127.00
2022-09-10T06:00:20.596Z,122.00
2022-09-10T06:01:20.608Z,120.00
2022-09-10T06:02:24.158Z,123.00
2022-09-10T06:03:20.662Z,120.00
2022-09-10T06:04:20.630Z,110.00
2022-09-10T06:05:20.626Z,103.00
2022-09-10T06:06:20.661Z,104.00
2022-09-10T06:07:20.672Z,112.00
2022-09-10T06:08:20.715Z,122.00
2022-09-10T06:09:20.683Z,128.00
2022-09-10T06:10:20.691Z,138.00
2022-09-10T06:11:20.704Z,143.00
2022-09-10T06:12:20.683Z,154.00
2022-09-10T06:13:20.693Z,162.00
2022-09-10T06:14:20.738Z,175.00
2022-09-10T06:15:20.681Z,180.00
2022-09-10T06:16:20.785Z,182.00
2022-09-10T06:17:20.746Z,179.00
2022-09-10T06:18:20.741Z,177.00
2022-09-10T06:19:20.781Z,171.00
2022-09-10T06:20:20.756Z,169.00
2022-09-10T06:21:23.926Z,162.00
2022-09-10T06:22:20.774Z,154.00
2022-09-10T06:23:20.772Z,148.00
2022-09-10T06:24:20.802Z,140.00
2022-09-10T06:25:20.842Z,132.00
2022-09-10T06:26:20.804Z,123.00
2022-09-10T06:27:20.813Z,118.00
2022-09-10T06:28:20.847Z,112.00
2022-09-10T06:29:20.865Z,109.00
2022-09-10T06:30:20.897Z,105.00
2022-09-10T06:31:20.890Z,102.00
2022-09-10T06:32:20.881Z,103.00
2022-09-10T06:33:20.881Z,107.00
2022-09-10T06:34:20.938Z,114.00
2022-09-10T06:35:20.907Z,122.00
2022-09-10T06:36:20.926Z,131.00
2022-09-10T06:37:20.914Z,133.00
2022-09-10T06:38:20.921Z,133.00
2022-09-10T06:39:20.948Z,134.00
2022-09-10T06:40:20.964Z,136.00
2022-09-10T06:41:20.996Z,145.00
2022-09-10T06:42:21.004Z,154.00
2022-09-10T06:43:21.036Z,163.00
2022-09-10T06:44:21.070Z,172.00
2022-09-10T06:45:21.102Z,178.00
2022-09-10T06:49:21.194Z,172.00
2022-09-10T06:50:21.242Z,177.00
2022-09-10T06:51:21.244Z,184.00
2022-09-10T06:52:21.250Z,188.00
2022-09-10T06:53:21.280Z,187.00
2022-09-10T06:54:21.294Z,183.00
2022-09-10T06:55:21.311Z,177.00
2022-09-10T06:56:21.282Z,175.00
2022-09-10T06:57:21.292Z,177.00
2022-09-10T06:58:21.297Z,179.00
2022-09-10T06:59:21.314Z,183.00
2022-09-10T07:00:21.338Z,186.00
2022-09-10T07:01:21.478Z,182.00
2022-09-10T07:02:21.453Z,179.00
2022-09-10T07:03:21.374Z,181.00
2022-09-10T07:04:21.396Z,185.00
2022-09-10T07:05:21.369Z,191.00
2022-09-10T07:06:21.372Z,200.00
2022-09-10T07:07:21.391Z,211.00
2022-09-10T07:08:21.432Z,221.00
2022-09-10T07:09:21.482Z,223.00
2022-09-10T07:10:21.431Z,219.00
2022-09-10T07:11:21.447Z,207.00
2022-09-10T07:12:21.446Z,192.00
2022-09-10T07:13:21.445Z,181.00
2022-09-10T07:14:21.499Z,173.00
2022-09-10T07:15:21.455Z,166.00
2022-09-10T07:16:21.463Z,161.00
2022-09-10T07:17:21.474Z,162.00
2022-09-10T07:18:21.494Z,173.00
2022-09-10T07:19:21.508Z,181.00
2022-09-10T07:20:21.523Z,183.00
2022-09-10T07:21:21.520Z,179.00
2022-09-10T07:22:21.550Z,181.00
2022-09-10T07:23:21.584Z,183.00
2022-09-10T07:24:21.607Z,193.00
2022-09-10T07:25:21.608Z,213.00
2022-09-10T07:26:21.620Z,238.00
2022-09-10T07:27:21.645Z,240.00
2022-09-10T07:28:21.655Z,236.00
2022-09-10T07:29:21.663Z,238.00
2022-09-10T07:30:21.766Z,244.00
2022-09-10T07:31:21.729Z,247.00
2022-09-10T07:32:21.707Z,257.00
2022-09-10T07:33:21.725Z,269.00
2022-09-10T07:34:21.759Z,288.00
2022-09-10T07:35:21.713Z,314.00
2022-09-10T07:36:21.732Z,343.00
2022-09-10T07:37:21.747Z,376.00
2022-09-10T07:38:21.783Z,411.00
2022-09-10T07:39:25.548Z,431.00
2022-09-10T07:40:21.797Z,432.00
2022-09-10T07:41:21.798Z,433.00
2022-09-10T07:42:21.820Z,433.00
2022-09-10T07:43:21.819Z,432.00
2022-09-10T07:44:21.824Z,432.00
2022-09-10T07:45:21.840Z,435.00
2022-09-10T07:46:21.846Z,439.00
2022-09-10T07:47:21.846Z,456.00
2022-09-10T07:48:21.867Z,480.00
2022-09-10T07:49:21.884Z,499.00
2022-09-10T07:50:21.961Z,512.00
2022-09-10T07:51:21.921Z,520.00
2022-09-10T07:52:21.935Z,524.00
2022-09-10T07:53:21.957Z,538.00
2022-09-10T07:54:21.996Z,522.00
2022-09-10T07:55:21.958Z,506.00
2022-09-10T07:56:21.953Z,499.00
2022-09-10T07:57:21.990Z,519.00
2022-09-10T07:58:22.001Z,532.00
2022-09-10T07:59:22.009Z,535.00
2022-09-10T08:00:22.021Z,538.00
2022-09-10T08:01:22.144Z,547.00
2022-09-10T08:02:22.177Z,573.00
2022-09-10T08:03:22.105Z,579.00
2022-09-10T08:04:22.112Z,584.00
2022-09-10T08:05:22.102Z,565.00
2022-09-10T08:06:22.141Z,530.00
2022-09-10T08:07:22.134Z,500.00
2022-09-10T08:08:22.185Z,468.00
2022-09-10T08:09:22.201Z,402.00
2022-09-10T08:10:22.227Z,323.00
2022-09-10T08:11:22.215Z,293.00
2022-09-10T08:12:22.243Z,278.00
2022-09-10T08:13:22.240Z,242.00
2022-09-10T08:14:22.308Z,193.00
2022-09-10T08:15:22.267Z,158.00
2022-09-10T08:16:22.264Z,180.00
2022-09-10T08:17:22.298Z,197.00
2022-09-10T08:18:22.277Z,210.00
2022-09-10T08:19:22.270Z,223.00
2022-09-10T08:20:22.308Z,201.00
2022-09-10T08:21:22.324Z,207.00
2022-09-10T08:22:22.354Z,226.00
2022-09-10T08:23:22.350Z,224.00
2022-09-10T08:24:22.372Z,208.00
2022-09-10T08:25:22.392Z,208.00
2022-09-10T08:26:22.467Z,204.00
2022-09-10T08:27:22.409Z,188.00
2022-09-10T08:28:25.353Z,183.00
2022-09-10T08:29:22.448Z,172.00
2022-09-10T08:30:22.463Z,181.00
2022-09-10T08:31:22.526Z,192.00
2022-09-10T08:32:22.500Z,195.00
2022-09-10T08:33:22.512Z,190.00
2022-09-10T08:34:22.520Z,184.00
2022-09-10T08:35:22.538Z,185.00
2022-09-10T08:36:22.557Z,190.00
2022-09-10T08:37:22.525Z,195.00
2022-09-10T08:38:22.638Z,205.00
2022-09-10T08:39:22.538Z,214.00
2022-09-10T08:40:22.527Z,247.00
2022-09-10T08:41:22.550Z,283.00
2022-09-10T08:42:22.543Z,296.00
2022-09-10T08:43:22.559Z,297.00
2022-09-10T08:44:22.580Z,279.00
2022-09-10T08:45:22.588Z,250.00
2022-09-10T08:46:22.605Z,229.00
2022-09-10T08:47:22.620Z,215.00
2022-09-10T08:48:22.628Z,205.00
2022-09-10T08:49:22.627Z,240.00
2022-09-10T08:50:22.636Z,233.00
2022-09-10T08:51:22.678Z,206.00
2022-09-10T08:52:22.674Z,172.00
2022-09-10T08:53:22.661Z,206.00
2022-09-10T08:54:22.693Z,235.00
2022-09-10T08:55:22.688Z,231.00
2022-09-10T08:56:22.731Z,222.00
2022-09-10T08:57:22.687Z,228.00
2022-09-10T08:58:22.685Z,248.00
2022-09-10T08:59:22.680Z,256.00
2022-09-10T09:00:22.727Z,255.00
2022-09-10T09:01:22.827Z,271.00
2022-09-10T09:02:47.055Z,275.00
2022-09-10T09:03:22.770Z,269.00
2022-09-10T09:04:22.727Z,314.00
2022-09-10T09:05:22.715Z,318.00
2022-09-10T09:06:22.718Z,306.00
2022-09-10T09:07:22.747Z,271.00
2022-09-10T09:08:22.755Z,251.00
2022-09-10T09:09:22.765Z,261.00
2022-09-10T09:10:22.789Z,272.00
2022-09-10T09:11:22.790Z,222.00
2022-09-10T09:12:22.788Z,223.00
2022-09-10T09:13:22.845Z,264.00
2022-09-10T09:14:22.857Z,311.00
2022-09-10T09:15:22.890Z,328.00
2022-09-10T09:16:22.955Z,358.00
2022-09-10T09:17:22.913Z,360.00
2022-09-10T09:18:22.935Z,366.00
2022-09-10T09:19:22.955Z,363.00
2022-09-10T09:20:22.961Z,339.00
2022-09-10T09:21:22.966Z,323.00
2022-09-10T09:22:22.974Z,312.00
2022-09-10T09:23:22.979Z,330.00
2022-09-10T09:24:22.989Z,375.00
2022-09-10T09:25:23.003Z,406.00
2022-09-10T09:26:23.052Z,441.00
2022-09-10T09:27:23.053Z,499.00
2022-09-10T09:28:23.063Z,540.00
2022-09-10T09:29:23.087Z,547.00
2022-09-10T09:30:23.106Z,521.00
2022-09-10T09:31:23.246Z,538.00
2022-09-10T09:32:23.146Z,569.00
2022-09-10T09:33:23.174Z,634.00
2022-09-10T09:34:23.169Z,672.00
2022-09-10T09:35:23.195Z,639.00
2022-09-10T09:36:23.274Z,604.00
2022-09-10T09:37:23.195Z,564.00
2022-09-10T09:38:23.193Z,540.00
2022-09-10T09:39:25.724Z,503.00
2022-09-10T09:40:23.217Z,545.00
2022-09-10T09:41:23.251Z,639.00
2022-09-10T09:42:23.296Z,668.00
2022-09-10T09:43:23.297Z,689.00
2022-09-10T09:44:23.295Z,694.00
2022-09-10T09:45:23.320Z,704.00
2022-09-10T09:46:23.325Z,690.00
2022-09-10T09:47:23.345Z,662.00
2022-09-10T09:48:23.416Z,607.00
2022-09-10T09:49:23.370Z,492.00
2022-09-10T09:50:23.380Z,457.00
2022-09-10T09:51:23.391Z,477.00
2022-09-10T09:52:23.414Z,534.00
2022-09-10T09:53:23.438Z,570.00
2022-09-10T09:55:23.468Z,628.00
2022-09-10T09:56:23.496Z,694.00
2022-09-10T09:57:23.523Z,590.00
2022-09-10T09:58:23.554Z,600.00
2022-09-10T09:59:23.547Z,689.00
2022-09-10T10:00:23.609Z,698.00
2022-09-10T10:01:23.686Z,672.00
2022-09-10T10:02:23.665Z,685.00
2022-09-10T10:03:23.594Z,699.00
2022-09-10T10:04:23.600Z,705.00
2022-09-10T10:05:23.624Z,763.00
2022-09-10T10:06:23.667Z,769.00
2022-09-10T10:07:23.667Z,768.00
2022-09-10T10:08:23.691Z,786.00
2022-09-10T10:09:23.699Z,815.00
2022-09-10T10:10:23.709Z,762.00
2022-09-10T10:11:23.728Z,711.00
2022-09-10T10:12:23.758Z,655.00
2022-09-10T10:13:23.779Z,660.00
2022-09-10T10:14:23.774Z,787.00
2022-09-10T10:15:23.773Z,897.00
2022-09-10T10:16:23.778Z,692.00
2022-09-10T10:17:23.786Z,751.00
2022-09-10T10:18:23.784Z,747.00
2022-09-10T10:19:23.817Z,729.00
2022-09-10T10:20:24.058Z,834.00
2022-09-10T10:21:23.827Z,770.00
2022-09-10T10:22:23.857Z,703.00
2022-09-10T10:23:26.176Z,691.00
2022-09-10T10:24:23.866Z,684.00
2022-09-10T10:25:23.889Z,745.00
2022-09-10T10:26:23.907Z,712.00
2022-09-10T10:27:23.893Z,674.00
2022-09-10T10:28:23.921Z,689.00
2022-09-10T10:29:23.949Z,707.00
2022-09-10T10:30:23.999Z,780.00
2022-09-10T10:31:24.046Z,761.00
2022-09-10T10:32:23.981Z,801.00
2022-09-10T10:33:24.010Z,757.00
2022-09-10T10:34:24.004Z,821.00
2022-09-10T10:35:24.028Z,905.00
2022-09-10T10:36:24.012Z,825.00
2022-09-10T10:37:24.046Z,980.00
2022-09-10T10:38:23.994Z,776.00
2022-09-10T10:39:24.022Z,749.00
2022-09-10T10:40:24.020Z,754.00
2022-09-10T10:41:24.050Z,712.00
2022-09-10T10:42:24.066Z,647.00
2022-09-10T10:43:24.076Z,627.00
2022-09-10T10:44:24.098Z,547.00
2022-09-10T10:45:24.126Z,529.00
2022-09-10T10:46:24.186Z,621.00
2022-09-10T10:47:24.123Z,634.00
2022-09-10T10:48:24.182Z,572.00
2022-09-10T10:49:24.135Z,517.00
2022-09-10T10:50:24.143Z,484.00
2022-09-10T10:51:24.180Z,426.00
2022-09-10T10:52:24.157Z,428.00
2022-09-10T10:53:24.183Z,533.00
2022-09-10T10:54:24.167Z,631.00
2022-09-10T10:55:24.186Z,691.00
2022-09-10T10:56:24.216Z,745.00
2022-09-10T10:57:24.222Z,642.00
2022-09-10T10:58:24.271Z,585.00
2022-09-10T10:59:24.241Z,613.00
2022-09-10T11:00:24.276Z,718.00
2022-09-10T11:01:24.314Z,746.00
2022-09-10T11:02:24.388Z,750.00
2022-09-10T11:03:24.291Z,760.00
2022-09-10T11:04:24.293Z,666.00
2022-09-10T11:05:24.330Z,584.00
2022-09-10T11:06:24.301Z,568.00
2022-09-10T11:07:24.284Z,584.00
2022-09-10T11:08:24.332Z,585.00
2022-09-10T11:09:24.340Z,603.00
2022-09-10T11:10:24.350Z,596.00
2022-09-10T11:11:24.384Z,627.00
2022-09-10T11:12:24.403Z,643.00
2022-09-10T11:13:24.451Z,684.00
2022-09-10T11:14:24.404Z,770.00
2022-09-10T11:15:24.422Z,827.00
2022-09-10T11:16:24.440Z,853.00
2022-09-10T11:17:24.419Z,918.00
2022-09-10T11:18:24.454Z,942.00
2022-09-10T11:19:24.483Z,957.00
2022-09-10T11:20:29.313Z,830.00
2022-09-10T11:21:24.560Z,799.00
2022-09-10T11:22:24.502Z,785.00
2022-09-10T11:23:24.517Z,785.00
2022-09-10T11:24:24.533Z,898.00
2022-09-10T11:26:50.473Z,609.00
2022-09-10T11:27:50.473Z,718.00
2022-09-10T11:28:50.491Z,867.00
2022-09-10T11:29:50.503Z,949.00
2022-09-10T11:30:50.612Z,543.00
2022-09-10T11:31:50.560Z,520.00
2022-09-10T11:32:50.572Z,927.00
2022-09-10T11:33:50.602Z,909.00
2022-09-10T11:34:50.559Z,632.00
2022-09-10T11:35:50.577Z,1089.00
2022-09-10T11:36:50.615Z,1123.00
2022-09-10T11:37:50.646Z,1096.00
2022-09-10T11:38:50.619Z,686.00
2022-09-10T11:39:50.672Z,700.00
2022-09-10T11:40:50.669Z,798.00
2022-09-10T11:41:50.696Z,1183.00
2022-09-10T11:42:50.719Z,1061.00
2022-09-10T11:43:50.745Z,1085.00
2022-09-10T11:44:50.757Z,855.00
2022-09-10T11:45:50.776Z,1224.00
2022-09-10T11:46:50.821Z,1206.00
2022-09-10T11:47:50.830Z,1109.00
2022-09-10T11:48:50.859Z,1164.00
2022-09-10T11:49:50.931Z,1189.00
2022-09-10T11:50:50.884Z,1222.00
2022-09-10T11:51:50.866Z,1031.00
2022-09-10T11:52:50.871Z,713.00
2022-09-10T11:53:50.899Z,621.00
2022-09-10T11:54:50.982Z,545.00
2022-09-10T11:55:50.958Z,479.00
2022-09-10T11:56:50.928Z,428.00
2022-09-10T11:57:50.950Z,388.00
2022-09-10T11:58:50.974Z,400.00
2022-09-10T11:59:50.984Z,400.00
2022-09-10T12:00:51.009Z,389.00
2022-09-10T12:01:51.089Z,421.00
2022-09-10T12:02:51.012Z,491.00
2022-09-10T12:03:51.056Z,580.00
2022-09-10T12:04:51.067Z,583.00
2022-09-10T12:05:51.123Z,534.00
2022-09-10T12:06:51.094Z,483.00
2022-09-10T12:07:51.150Z,424.00
2022-09-10T12:08:51.169Z,401.00
2022-09-10T12:09:51.136Z,426.00
2022-09-10T12:10:51.158Z,463.00
2022-09-10T12:11:51.153Z,515.00
2022-09-10T12:12:51.183Z,602.00
2022-09-10T12:13:51.180Z,683.00
2022-09-10T12:14:51.207Z,694.00
2022-09-10T12:15:51.234Z,947.00
2022-09-10T12:16:51.295Z,610.00
2022-09-10T12:17:51.260Z,562.00
2022-09-10T12:18:51.274Z,527.00
2022-09-10T12:19:51.307Z,562.00
2022-09-10T12:20:51.330Z,607.00
2022-09-10T12:21:51.390Z,642.00
2022-09-10T12:22:51.397Z,761.00
2022-09-10T12:23:51.380Z,897.00
2022-09-10T12:24:51.444Z,884.00
2022-09-10T12:25:51.435Z,879.00
2022-09-10T12:26:51.475Z,897.00
2022-09-10T12:27:51.476Z,825.00
2022-09-10T12:28:51.476Z,888.00
2022-09-10T12:29:51.508Z,856.00
2022-09-10T12:30:51.529Z,793.00
2022-09-10T12:31:51.504Z,704.00
2022-09-10T12:32:51.537Z,625.00
2022-09-10T12:33:51.557Z,575.00
2022-09-10T12:34:51.589Z,538.00
2022-09-10T12:35:51.613Z,550.00
2022-09-10T12:36:51.642Z,573.00
2022-09-10T12:37:51.687Z,610.00
2022-09-10T12:38:51.645Z,687.00
2022-09-10T12:39:51.704Z,785.00
2022-09-10T12:40:51.668Z,813.00
2022-09-10T12:41:51.668Z,814.00
2022-09-10T12:42:51.696Z,848.00
2022-09-10T12:43:51.714Z,950.00
2022-09-10T12:44:51.688Z,908.00
2022-09-10T12:45:51.714Z,885.00
2022-09-10T12:46:51.680Z,1030.00
2022-09-10T12:47:51.701Z,852.00
2022-09-10T12:48:51.723Z,1133.00
2022-09-10T12:49:51.730Z,1132.00
2022-09-10T12:50:51.740Z,909.00
2022-09-10T12:51:51.767Z,768.00
2022-09-10T12:52:51.783Z,797.00